Other Surface Observations
Issued by NWS Great Falls, MT

Home | Current Version | Previous Version | Text Only | Print | Product List | Glossary On
Versions: 1 2 3 4 5 6 7 8 9 10 11 12 13 14 15 16 17 18 19 20 21 22 23 24 25 26 27 28 29 30 31 32 33 34 35 36 37 38 39 40 41 42 43 44 45 46 47 48 49 50
723
SXUS55 KTFX 230344
OSOTFX

AREA AWOS OBSERVATIONS
NATIONAL WEATHER SERVICE GREAT FALLS MT
0844 PM MST Thu Feb 22 2018

METAR K3U3 230343Z AUTO 12000KT M12/M16 A3000
METAR KS71 230343Z AUTO 08000KT 10SM M24/M27 A3028
METAR K38S 230343Z AUTO 31006KT 10SM M12/M17 A3002
METAR K6S5 230343Z AUTO 21000 10SM M07/M12 A3005
METAR K1S3 230343Z AUTO 26007KT M19/M22 A3023
METAR KPWD 230343Z AUTO 28003KT 10SM M16/M19 A3021
METAR KPO1 230343Z AUTO 26006KT  10SM M23/M27 A3029



USA.gov is the U.S. government's official web portal to all federal, state and local government web resources and services.